Costa Magica — IBQQ — position and weather

sailwx.info

Track history (hours):
 
Tides and Currents Weather Stations Pressure Air Temp Water Temp Dewpoint Dewpoint Depression Visibility Wind Speed Wind Dir Waves Ship Positions

Costa Magica

Last reported at 2018-Aug-14 21:00 UTC. Time now 2018-Aug-14 21:09 UTC.
Position N 59°57' E 030°11'.

Type: Ship. MMSI: 247113300.

Date/timePositionNaut miles runAvg speedWind from/ knotsBaromVisibWave heightAir tempDewpointWater temp
2018-Aug-14 21:00N 59°57' E 030°11'0 0.0
2018-Aug-14 20:30N 59°57' E 030°11'0 0.0
2018-Aug-14 19:57N 59°57' E 030°11'0 0.0
2018-Aug-14 19:30N 59°57' E 030°11'0 0.0
2018-Aug-14 19:00N 59°57' E 030°11'0 0.0
2018-Aug-14 18:30N 59°57' E 030°11'0 0.0
2018-Aug-14 18:00N 59°57' E 030°11'0 0.0
2018-Aug-14 17:30N 59°57' E 030°11'0 0.0
2018-Aug-14 17:00N 59°57' E 030°11'0 0.0
2018-Aug-14 16:30N 59°57' E 030°11'0 0.0
2018-Aug-14 16:00N 59°57' E 030°11'0 0.0
2018-Aug-14 15:30N 59°57' E 030°11'0 0.0
2018-Aug-14 15:00N 59°57' E 030°11'0 0.0
2018-Aug-14 14:30N 59°57' E 030°11'0 0.0
2018-Aug-14 13:56N 59°57' E 030°11'0 0.0
2018-Aug-14 13:30N 59°57' E 030°11'0 0.0
2018-Aug-14 12:51N 59°57' E 030°11'0 0.0
2018-Aug-14 12:24N 59°57' E 030°11'0 0.0
2018-Aug-14 12:00N 59°57' E 030°11'0 0.0
2018-Aug-14 11:27N 59°57' E 030°11'0 0.0
2018-Aug-14 11:00N 59°57' E 030°11'0 0.0
2018-Aug-14 10:30N 59°57' E 030°11'0 0.0
2018-Aug-14 10:00N 59°57' E 030°11'0 0.0
2018-Aug-14 09:30N 59°57' E 030°11'0 0.0
2018-Aug-14 08:57N 59°57' E 030°11'0 0.0
2018-Aug-14 08:30N 59°57' E 030°11'0 0.0
2018-Aug-14 08:00N 59°57' E 030°11'0 0.0
2018-Aug-14 07:30N 59°57' E 030°11'0 0.0
2018-Aug-14 07:00N 59°57' E 030°11'0 0.0
2018-Aug-14 06:30N 59°57' E 030°11'0 0.0
2018-Aug-14 06:00N 59°57' E 030°11'0 0.0
2018-Aug-14 05:30N 59°57' E 030°11'0 0.0
2018-Aug-14 05:00N 59°57' E 030°11'0 0.0
2018-Aug-14 04:30N 59°57' E 030°11'0 0.0
2018-Aug-14 04:00N 59°57' E 030°11'0 0.4
2018-Aug-14 03:30N 59°57' E 030°11'4 7.3
2018-Aug-14 03:00N 59°56' E 030°04'5 9.3
2018-Aug-14 02:30N 59°56' E 029°54'5 9.5
2018-Aug-14 02:00N 59°59' E 029°46'5 9.5
2018-Aug-14 01:30N 60°00' E 029°37'511.0
2018-Aug-14 01:00N 60°01' E 029°26'510.2
2018-Aug-14 00:30N 60°02' E 029°16'815.3
2018-Aug-14 00:00N 60°02' E 029°01'815.4
2018-Aug-13 23:30N 60°02' E 028°45'815.7
2018-Aug-13 23:00N 60°03' E 028°30'815.4
2018-Aug-13 22:30N 60°07' E 028°17'815.4
2018-Aug-13 22:00N 60°09' E 028°02'815.3
2018-Aug-13 21:30N 60°10' E 027°47'815.6
2018-Aug-13 21:00N 60°07' E 027°33'815.7
2018-Aug-13 20:30N 60°03' E 027°19'915.5
2018-Aug-13 19:57N 59°58' E 027°04'715.4
2018-Aug-13 19:30N 59°59' E 026°51'815.4
2018-Aug-13 19:00N 59°59' E 026°35'815.5
2018-Aug-13 18:30N 59°57' E 026°20'915.6
2018-Aug-13 17:54N 59°54' E 026°02'615.7
2018-Aug-13 17:30N 59°52' E 025°50'816.0
2018-Aug-13 17:00N 59°51' E 025°35'816.3
2018-Aug-13 16:30N 59°49' E 025°19'816.0
2018-Aug-13 16:00N 59°47' E 025°04'816.0
2018-Aug-13 15:30N 59°43' E 024°51'815.6
2018-Aug-13 15:00N 59°36' E 024°41'612.5
2018-Aug-13 14:30N 59°31' E 024°45'4 6.9
2018-Aug-13 13:59N 59°27' E 024°46'0 0.0
2018-Aug-13 13:29N 59°27' E 024°46'0 0.0
2018-Aug-13 12:59N 59°27' E 024°46'0 0.0
2018-Aug-13 12:26N 59°27' E 024°46'0 0.0
2018-Aug-13 11:59N 59°27' E 024°46'0 0.0
2018-Aug-13 11:29N 59°27' E 024°46'0 0.0
2018-Aug-13 10:59N 59°27' E 024°46'0 0.0
2018-Aug-13 10:29N 59°27' E 024°46'0 0.0
2018-Aug-13 09:59N 59°27' E 024°46'0 0.0
2018-Aug-13 09:29N 59°27' E 024°46'0 0.0
2018-Aug-13 08:59N 59°27' E 024°46'0 0.0
2018-Aug-13 08:29N 59°27' E 024°46'0 0.0
2018-Aug-13 07:59N 59°27' E 024°46'0 0.0
2018-Aug-13 07:29N 59°27' E 024°46'0 0.0
2018-Aug-13 07:00N 59°27' E 024°46'0 0.0
2018-Aug-13 06:30N 59°27' E 024°46'0 0.0
2018-Aug-13 05:59N 59°27' E 024°46'0 0.0
2018-Aug-13 05:30N 59°27' E 024°46'0 0.0
2018-Aug-13 04:59N 59°27' E 024°46'0 0.0
2018-Aug-13 04:29N 59°27' E 024°46'0 0.1
2018-Aug-13 04:00N 59°27' E 024°46'5 9.2
2018-Aug-13 03:30N 59°30' E 024°40'713.3
2018-Aug-13 03:00N 59°30' E 024°27'714.3
2018-Aug-13 02:30N 59°30' E 024°13'714.6
2018-Aug-13 02:00N 59°29' E 023°58'713.2
2018-Aug-13 01:30N 59°29' E 023°45'612.5
2018-Aug-13 01:00N 59°29' E 023°33'612.4
2018-Aug-13 00:30N 59°28' E 023°21'612.0
2018-Aug-13 00:00N 59°28' E 023°09'712.1
2018-Aug-12 23:24N 59°27' E 022°55'512.2
2018-Aug-12 22:58N 59°25' E 022°45'2211.8
2018-Aug-12 21:07N 59°23' E 022°02'112.0
2018-Aug-12 21:00N 59°23' E 021°60'612.0
2018-Aug-12 20:30N 59°24' E 021°48'611.8
2018-Aug-12 20:00N 59°24' E 021°36'611.9
2018-Aug-12 19:30N 59°24' E 021°24'611.9
2018-Aug-12 19:00N 59°25' E 021°13'611.9
2018-Aug-12 18:30N 59°25' E 021°01'5210.0
2018-Aug-12 13:19N 59°47' E 019°28'412.1
2018-Aug-12 12:57N 59°45' E 019°19'715.2
2018-Aug-12 12:30N 59°43' E 019°07'713.9
2018-Aug-12 12:00N 59°39' E 018°55'611.1
2018-Aug-12 11:30N 59°36' E 018°46'611.5
2018-Aug-12 11:00N 59°33' E 018°37'5 9.6
2018-Aug-12 10:30N 59°30' E 018°29'510.9
2018-Aug-12 10:01N 59°26' E 018°23'5 9.1
2018-Aug-12 09:30N 59°21' E 018°26'5 9.4
2018-Aug-12 09:00N 59°22' E 018°17'5 9.4
2018-Aug-12 08:31N 59°21' E 018°09'1 1.1
2018-Aug-12 07:58N 59°21' E 018°08'0 0.0
2018-Aug-12 07:28N 59°21' E 018°08'0 0.0
2018-Aug-12 06:58N 59°21' E 018°08'0 0.0
2018-Aug-12 06:28N 59°21' E 018°08'0 0.0
2018-Aug-12 05:58N 59°21' E 018°08'0 0.0
2018-Aug-12 05:28N 59°21' E 018°08'0 0.0
2018-Aug-12 04:58N 59°21' E 018°08'0 0.0
2018-Aug-12 04:28N 59°21' E 018°08'0 0.0
2018-Aug-12 03:58N 59°21' E 018°08'0 0.0
2018-Aug-12 03:28N 59°21' E 018°08'0 0.0
2018-Aug-12 02:58N 59°21' E 018°08'0 0.0
2018-Aug-12 02:28N 59°21' E 018°08'0 0.0
2018-Aug-12 01:58N 59°21' E 018°08'0 0.0
2018-Aug-12 01:28N 59°21' E 018°08'0 0.0
2018-Aug-12 00:58N 59°21' E 018°08'0 0.0
2018-Aug-12 00:28N 59°21' E 018°08'0 0.0
2018-Aug-11 23:58N 59°21' E 018°08'0 0.0
2018-Aug-11 23:28N 59°21' E 018°08'0 0.0
2018-Aug-11 22:58N 59°21' E 018°08'0 0.0
2018-Aug-11 22:28N 59°21' E 018°08'0 0.0
2018-Aug-11 21:58N 59°21' E 018°08'0 0.0
2018-Aug-11 21:28N 59°21' E 018°08'0 0.0
2018-Aug-11 20:58N 59°21' E 018°08'0 0.0
2018-Aug-11 20:28N 59°21' E 018°08'0 0.0
2018-Aug-11 19:58N 59°21' E 018°08'0 0.0
2018-Aug-11 19:28N 59°21' E 018°08'0 0.0
2018-Aug-11 18:58N 59°21' E 018°08'0 0.0
2018-Aug-11 18:28N 59°21' E 018°08'0 0.0
2018-Aug-11 17:58N 59°21' E 018°08'0 0.0
2018-Aug-11 17:28N 59°21' E 018°08'0 0.0
2018-Aug-11 16:58N 59°21' E 018°08'0 0.0
2018-Aug-11 16:28N 59°21' E 018°08'0 0.0
2018-Aug-11 15:58N 59°21' E 018°08'0 0.0
2018-Aug-11 15:28N 59°21' E 018°08'0 0.0
2018-Aug-11 14:58N 59°21' E 018°08'0 0.0
2018-Aug-11 14:28N 59°21' E 018°08'0 0.0
2018-Aug-11 13:58N 59°21' E 018°08'0 0.0
2018-Aug-11 13:28N 59°21' E 018°08'0 0.0
2018-Aug-11 12:58N 59°21' E 018°08'0 0.0
2018-Aug-11 12:28N 59°21' E 018°08'0 0.0
2018-Aug-11 11:58N 59°21' E 018°08'0 0.0
2018-Aug-11 11:28N 59°21' E 018°08'0 0.0
2018-Aug-11 10:58N 59°21' E 018°08'0 0.0
2018-Aug-11 10:28N 59°21' E 018°08'0 0.0
2018-Aug-11 09:58N 59°21' E 018°08'0 0.0
2018-Aug-11 09:28N 59°21' E 018°08'0 0.0
2018-Aug-11 08:58N 59°21' E 018°08'0 0.0
2018-Aug-11 08:28N 59°21' E 018°08'0 0.0
2018-Aug-11 07:58N 59°21' E 018°08'0 0.0
2018-Aug-11 07:28N 59°21' E 018°08'0 0.0
2018-Aug-11 06:58N 59°21' E 018°08'0 0.0
2018-Aug-11 06:28N 59°21' E 018°08'0 0.0
2018-Aug-11 05:58N 59°21' E 018°08'0 0.0
2018-Aug-11 05:28N 59°21' E 018°08'0 0.0
2018-Aug-11 04:58N 59°21' E 018°08'0 0.0
2018-Aug-11 04:28N 59°21' E 018°08'0 0.0
2018-Aug-11 03:58N 59°21' E 018°08'0 0.0
2018-Aug-11 03:28N 59°21' E 018°08'0 0.0
2018-Aug-11 02:58N 59°21' E 018°08'0 0.0
2018-Aug-11 02:28N 59°21' E 018°08'0 0.0
2018-Aug-11 01:58N 59°21' E 018°08'0 0.0
2018-Aug-11 01:28N 59°21' E 018°08'0 0.0
2018-Aug-11 00:58N 59°21' E 018°08'0 0.0
2018-Aug-11 00:28N 59°21' E 018°08'0 0.0
2018-Aug-10 23:58N 59°21' E 018°08'0 0.0
2018-Aug-10 23:28N 59°21' E 018°08'0 0.0
2018-Aug-10 22:58N 59°21' E 018°08'0 0.0
2018-Aug-10 22:28N 59°21' E 018°08'0 0.0
2018-Aug-10 21:58N 59°21' E 018°08'0 0.0
2018-Aug-10 21:28N 59°21' E 018°08'0 0.0
2018-Aug-10 20:58N 59°21' E 018°08'0 0.0
2018-Aug-10 20:28N 59°21' E 018°08'0 0.0
2018-Aug-10 19:58N 59°21' E 018°08'0 0.0
2018-Aug-10 19:28N 59°21' E 018°08'0 0.0
2018-Aug-10 18:58N 59°21' E 018°08'0 0.0
2018-Aug-10 18:28N 59°21' E 018°08'0 0.0
2018-Aug-10 17:58N 59°21' E 018°08'0 0.0
2018-Aug-10 17:28N 59°21' E 018°08'0 0.0
2018-Aug-10 16:58N 59°21' E 018°08'0 0.0
2018-Aug-10 16:28N 59°21' E 018°08'1 1.1
2018-Aug-10 16:00N 59°21' E 018°07'0 0.5
2018-Aug-10 15:28N 59°21' E 018°07'0 0.0
2018-Aug-10 14:58N 59°21' E 018°07'0 0.0
2018-Aug-10 14:28N 59°21' E 018°07'0 0.0
2018-Aug-10 13:58N 59°21' E 018°07'0 0.0
2018-Aug-10 13:28N 59°21' E 018°07'0 0.0
2018-Aug-10 12:58N 59°21' E 018°07'0 0.0
2018-Aug-10 12:28N 59°21' E 018°07'0 0.0
2018-Aug-10 11:58N 59°21' E 018°07'0 0.0
2018-Aug-10 11:28N 59°21' E 018°07'0 0.0
2018-Aug-10 10:58N 59°21' E 018°07'0 0.0
2018-Aug-10 10:28N 59°21' E 018°07'0 0.0
2018-Aug-10 09:58N 59°21' E 018°07'0 0.0
2018-Aug-10 09:28N 59°21' E 018°07'0 0.0
2018-Aug-10 08:58N 59°21' E 018°07'0 0.0
2018-Aug-10 08:25N 59°21' E 018°07'0 0.0
2018-Aug-10 07:58N 59°21' E 018°07'0 0.0
2018-Aug-10 07:28N 59°21' E 018°07'0 0.0
2018-Aug-10 06:58N 59°21' E 018°07'1 2.0
2018-Aug-10 06:30N 59°21' E 018°08'4 8.8
2018-Aug-10 06:00N 59°22' E 018°16'5 9.6
2018-Aug-10 05:31N 59°21' E 018°26'5 9.2
2018-Aug-10 05:00N 59°26' E 018°23'510.7
2018-Aug-10 04:30N 59°30' E 018°29'5 9.7
2018-Aug-10 04:00N 59°33' E 018°37'611.7
2018-Aug-10 03:30N 59°36' E 018°47'611.5
2018-Aug-10 03:00N 59°40' E 018°56'714.1
2018-Aug-10 02:31N 59°43' E 019°07'816.5
2018-Aug-10 02:01N 59°46' E 019°23'612.2
2018-Aug-10 01:30N 59°49' E 019°34'612.2
2018-Aug-10 01:00N 59°47' E 019°46'713.2
2018-Aug-10 00:31N 59°42' E 019°55'815.2
2018-Aug-10 00:00N 59°37' E 020°06'815.3
2018-Aug-09 23:30N 59°37' E 020°21'915.3
2018-Aug-09 22:54N 59°36' E 020°39'615.6
2018-Aug-09 22:30N 59°34' E 020°50'815.6
2018-Aug-09 22:00N 59°31' E 021°05'815.6
2018-Aug-09 21:30N 59°29' E 021°20'815.4
2018-Aug-09 21:01N 59°27' E 021°34'815.6
2018-Aug-09 20:30N 59°27' E 021°50'815.7
2018-Aug-09 20:00N 59°27' E 022°05'815.6
2018-Aug-09 19:30N 59°28' E 022°20'815.7
2018-Aug-09 19:00N 59°31' E 022°35'815.3
2018-Aug-09 18:30N 59°32' E 022°50'815.4
2018-Aug-09 18:00N 59°32' E 023°05'815.0
2018-Aug-09 17:30N 59°31' E 023°20'815.2
2018-Aug-09 17:00N 59°31' E 023°35'815.2
2018-Aug-09 16:30N 59°31' E 023°50'815.4
2018-Aug-09 16:01N 59°31' E 024°05'815.1
2018-Aug-09 15:30N 59°30' E 024°20'713.6
2018-Aug-09 15:01N 59°30' E 024°33'612.0
2018-Aug-09 14:31N 59°31' E 024°45'4 7.9
2018-Aug-09 13:59N 59°27' E 024°46'0 0.0
2018-Aug-09 13:29N 59°27' E 024°46'0 0.0
2018-Aug-09 12:59N 59°27' E 024°46'0 0.0
2018-Aug-09 12:29N 59°27' E 024°46'0 0.0
2018-Aug-09 11:59N 59°27' E 024°46'0 0.0
2018-Aug-09 11:29N 59°27' E 024°46'0 0.0
2018-Aug-09 10:59N 59°27' E 024°46'0 0.0
2018-Aug-09 10:26N 59°27' E 024°46'0 0.0
2018-Aug-09 09:59N 59°27' E 024°46'0 0.0
2018-Aug-09 09:26N 59°27' E 024°46'0 0.0
2018-Aug-09 08:59N 59°27' E 024°46'0 0.0
2018-Aug-09 08:29N 59°27' E 024°46'0 0.0
2018-Aug-09 07:59N 59°27' E 024°46'0 0.0
2018-Aug-09 07:29N 59°27' E 024°46'0 0.0
2018-Aug-09 06:59N 59°27' E 024°46'0 0.0
2018-Aug-09 06:29N 59°27' E 024°46'0 0.0
2018-Aug-09 05:59N 59°27' E 024°46'0 0.0
2018-Aug-09 05:30N 59°27' E 024°46'3 5.5
2018-Aug-09 05:00N 59°30' E 024°45'714.2
2018-Aug-09 04:30N 59°36' E 024°40'611.2
2018-Aug-09 04:00N 59°41' E 024°45'612.1
2018-Aug-09 03:30N 59°46' E 024°53'612.1
2018-Aug-09 03:00N 59°51' E 025°00'612.7
2018-Aug-09 02:31N 59°52' E 025°13'612.6
2018-Aug-09 02:00N 59°53' E 025°25'713.7
2018-Aug-09 01:30N 59°54' E 025°39'815.6
2018-Aug-09 01:00N 59°56' E 025°54'815.7
2018-Aug-09 00:30N 59°58' E 026°09'815.3
2018-Aug-09 00:00N 60°00' E 026°24'815.1
2018-Aug-08 23:30N 60°01' E 026°39'816.1
2018-Aug-08 23:01N 60°00' E 026°54'714.5
2018-Aug-08 22:30N 60°01' E 027°09'815.7
2018-Aug-08 22:00N 60°05' E 027°22'815.7
2018-Aug-08 21:30N 60°09' E 027°36'715.0
2018-Aug-08 21:00N 60°12' E 027°50'815.8
2018-Aug-08 20:30N 60°10' E 028°05'815.1
2018-Aug-08 20:00N 60°07' E 028°19'714.8
2018-Aug-08 19:30N 60°03' E 028°32'815.5
2018-Aug-08 19:00N 60°03' E 028°48'815.7
2018-Aug-08 18:30N 60°02' E 029°03'1019.2
2018-Aug-08 18:00N 60°02' E 029°23'4 8.5
2018-Aug-08 17:28N 60°01' E 029°32'612.7
2018-Aug-08 16:59N 59°59' E 029°43'610.1
2018-Aug-08 16:25N 59°57' E 029°53'410.1
2018-Aug-08 16:00N 59°56' E 030°02'5 8.7
2018-Aug-08 15:25N 59°57' E 030°11'0 0.4
2018-Aug-08 15:00N 59°57' E 030°12'0 0.0
2018-Aug-08 14:24N 59°57' E 030°12'0 0.0
2018-Aug-08 14:00N 59°57' E 030°12'0 0.0
2018-Aug-08 13:26N 59°57' E 030°12'0 0.0
2018-Aug-08 13:00N 59°57' E 030°12'0 0.0
2018-Aug-08 12:27N 59°57' E 030°12'0 0.0
2018-Aug-08 11:43N 59°57' E 030°12'0 0.0
2018-Aug-08 11:28N 59°57' E 030°12'0 0.0
2018-Aug-08 10:54N 59°57' E 030°12'0 0.0
2018-Aug-08 10:18N 59°57' E 030°12'0 0.0
2018-Aug-08 09:44N 59°57' E 030°12'0 0.0
2018-Aug-08 09:22N 59°57' E 030°12'0 0.0
2018-Aug-08 08:56N 59°57' E 030°12'0 0.0
2018-Aug-08 08:27N 59°57' E 030°12'0 0.0
2018-Aug-08 07:53N 59°57' E 030°12'0 0.0
2018-Aug-08 07:27N 59°57' E 030°12'0 0.0
2018-Aug-08 06:59N 59°57' E 030°12'0 0.0
2018-Aug-08 06:27N 59°57' E 030°12'0 0.0
2018-Aug-08 05:54N 59°57' E 030°12'0 0.0
2018-Aug-08 05:27N 59°57' E 030°12'0 0.0
2018-Aug-08 04:53N 59°57' E 030°12'0 0.0
2018-Aug-08 04:27N 59°57' E 030°12'0 0.0
2018-Aug-08 03:54N 59°57' E 030°12'0 0.0
2018-Aug-08 03:21N 59°57' E 030°11'0 0.0
2018-Aug-08 02:55N 59°57' E 030°12'0 0.0
2018-Aug-08 02:30N 59°57' E 030°12'0 0.0
2018-Aug-08 01:57N 59°57' E 030°12'0 0.0
2018-Aug-08 01:28N 59°57' E 030°12'0 0.0
2018-Aug-08 00:58N 59°57' E 030°12'0 0.0
2018-Aug-08 00:24N 59°57' E 030°11'0 0.0
2018-Aug-07 23:59N 59°57' E 030°11'0 0.0
2018-Aug-07 23:27N 59°57' E 030°11'0 0.0
2018-Aug-07 22:52N 59°57' E 030°12'0 0.0
2018-Aug-07 22:29N 59°57' E 030°12'0 0.0
2018-Aug-07 21:55N 59°57' E 030°12'0 0.0
2018-Aug-07 21:29N 59°57' E 030°12'0 0.0
2018-Aug-07 20:48N 59°57' E 030°12'0 0.0
2018-Aug-07 20:29N 59°57' E 030°12'0 0.0
2018-Aug-07 19:48N 59°57' E 030°12'0 0.0
2018-Aug-07 19:29N 59°57' E 030°12'0 0.0
2018-Aug-07 18:57N 59°57' E 030°12'0 0.0
2018-Aug-07 18:30N 59°57' E 030°12'0 0.0
2018-Aug-07 17:59N 59°57' E 030°12'0 0.0
2018-Aug-07 17:30N 59°57' E 030°12'0 0.0
2018-Aug-07 17:00N 59°57' E 030°12'0 0.0
2018-Aug-07 16:30N 59°57' E 030°12'0 0.0
2018-Aug-07 15:56N 59°57' E 030°12'0 0.0
2018-Aug-07 15:30N 59°57' E 030°12'0 0.0
2018-Aug-07 14:54N 59°57' E 030°12'0 0.0
2018-Aug-07 14:22N 59°57' E 030°12'0 0.0
2018-Aug-07 13:57N 59°57' E 030°12'0 0.0
2018-Aug-07 13:30N 59°57' E 030°12'0 0.0
2018-Aug-07 12:57N 59°57' E 030°12'0 0.0
2018-Aug-07 12:30N 59°57' E 030°12'0 0.0
2018-Aug-07 11:57N 59°57' E 030°12'0 0.0
2018-Aug-07 11:30N 59°57' E 030°12'0 0.0
2018-Aug-07 10:57N 59°57' E 030°12'0 0.0
2018-Aug-07 09:44N 59°57' E 030°12'0 0.0
2018-Aug-07 09:27N 59°57' E 030°12'0 0.0
2018-Aug-07 08:54N 59°57' E 030°12'0 0.0
2018-Aug-07 08:27N 59°57' E 030°12'0 0.0
2018-Aug-07 07:54N 59°57' E 030°12'0 0.0
2018-Aug-07 07:21N 59°57' E 030°12'0 0.0
2018-Aug-07 06:54N 59°57' E 030°12'0 0.0
2018-Aug-07 06:28N 59°57' E 030°12'0 0.0
2018-Aug-07 05:54N 59°57' E 030°12'0 0.0
2018-Aug-07 05:30N 59°57' E 030°12'0 0.0
2018-Aug-07 04:57N 59°57' E 030°12'0 0.0
2018-Aug-07 04:30N 59°57' E 030°12'0 0.0
2018-Aug-07 03:57N 59°57' E 030°12'24 7.2
2018-Aug-07 00:35N 60°02' E 029°24'114.7
2018-Aug-07 00:30N 60°02' E 029°22'917.4
2018-Aug-07 00:01N 60°02' E 029°04'816.9
2018-Aug-06 23:30N 60°02' E 028°47'816.0
2018-Aug-06 23:00N 60°03' E 028°31'815.9
2018-Aug-06 22:30N 60°06' E 028°17'815.8
2018-Aug-06 22:01N 60°09' E 028°03'816.0
2018-Aug-06 21:30N 60°11' E 027°46'815.5
2018-Aug-06 21:00N 60°07' E 027°33'815.3
2018-Aug-06 20:30N 60°03' E 027°20'815.5
2018-Aug-06 20:00N 59°59' E 027°07'714.8
2018-Aug-06 19:30N 59°59' E 026°52'815.5
2018-Aug-06 19:00N 59°59' E 026°37'815.6
2018-Aug-06 18:30N 59°57' E 026°21'1215.5
2018-Aug-06 17:45N 59°54' E 025°59'415.8
2018-Aug-06 17:28N 59°53' E 025°51'816.1
2018-Aug-06 17:00N 59°52' E 025°36'816.5
2018-Aug-06 16:30N 59°55' E 025°21'816.7
2018-Aug-06 16:00N 59°58' E 025°05'713.7
2018-Aug-06 15:30N 60°02' E 024°54'713.1
2018-Aug-06 15:01N 60°09' E 024°55'0 0.5
2018-Aug-06 14:29N 60°09' E 024°55'0 0.0
2018-Aug-06 13:59N 60°09' E 024°55'0 0.0
2018-Aug-06 13:29N 60°09' E 024°55'0 0.0
2018-Aug-06 12:59N 60°09' E 024°55'0 0.0
2018-Aug-06 12:29N 60°09' E 024°55'0 0.0
2018-Aug-06 11:59N 60°09' E 024°55'0 0.0
2018-Aug-06 11:29N 60°09' E 024°55'0 0.0
2018-Aug-06 10:59N 60°09' E 024°55'0 0.0
2018-Aug-06 10:29N 60°09' E 024°55'0 0.0
2018-Aug-06 09:59N 60°09' E 024°55'0 0.0
2018-Aug-06 09:29N 60°09' E 024°55'0 0.0
2018-Aug-06 08:59N 60°09' E 024°55'0 0.0
2018-Aug-06 08:29N 60°09' E 024°55'0 0.0
2018-Aug-06 07:59N 60°09' E 024°55'0 0.0
2018-Aug-06 07:29N 60°09' E 024°55'0 0.0
2018-Aug-06 06:59N 60°09' E 024°55'0 0.0
2018-Aug-06 06:29N 60°09' E 024°55'0 0.0
2018-Aug-06 05:59N 60°09' E 024°55'0 0.0
2018-Aug-06 05:29N 60°09' E 024°55'0 0.0
2018-Aug-06 04:59N 60°09' E 024°55'0 0.0
2018-Aug-06 04:30N 60°09' E 024°55'0 0.9
2018-Aug-06 04:00N 60°09' E 024°55'5 9.2
2018-Aug-06 03:30N 60°04' E 024°53'612.5
2018-Aug-06 03:00N 59°58' E 024°56'510.8
2018-Aug-06 02:30N 59°53' E 024°54'611.9
2018-Aug-06 02:00N 59°48' E 024°49'612.1
2018-Aug-06 01:30N 59°45' E 024°37'612.4
2018-Aug-06 01:00N 59°44' E 024°26'612.3
2018-Aug-06 00:30N 59°42' E 024°14'612.1
2018-Aug-06 00:00N 59°40' E 024°02'612.4
2018-Aug-05 23:30N 59°38' E 023°51'612.6
2018-Aug-05 23:00N 59°36' E 023°39'612.0
2018-Aug-05 22:30N 59°34' E 023°28'612.0
2018-Aug-05 22:00N 59°32' E 023°16'612.2
2018-Aug-05 21:30N 59°30' E 023°05'612.6
2018-Aug-05 21:00N 59°28' E 022°53'2714.3
2018-Aug-05 19:07N 59°23' E 022°01'215.6
2018-Aug-05 19:00N 59°23' E 021°58'815.9
2018-Aug-05 18:31N 59°24' E 021°42'816.0
2018-Aug-05 18:00N 59°24' E 021°26'816.1
2018-Aug-05 17:30N 59°25' E 021°11'816.0
2018-Aug-05 17:00N 59°26' E 020°55'4113.8
2018-Aug-05 14:03N 59°45' E 019°44'914.8
2018-Aug-05 13:26N 59°47' E 019°27'612.8
2018-Aug-05 13:00N 59°45' E 019°16'816.2
2018-Aug-05 12:30N 59°42' E 019°01'510.9
2018-Aug-05 12:00N 59°38' E 018°53'612.3
2018-Aug-05 11:30N 59°35' E 018°43'510.6
2018-Aug-05 11:00N 59°32' E 018°34'5 9.6
2018-Aug-05 10:31N 59°29' E 018°27'4 8.5
2018-Aug-05 10:01N 59°25' E 018°25'3 6.2
2018-Aug-05 09:31N 59°22' E 018°25'4 8.9
2018-Aug-05 09:01N 59°22' E 018°16'4 8.3
2018-Aug-05 08:31N 59°21' E 018°08'0 0.6
2018-Aug-05 07:59N 59°21' E 018°08'0 0.0
2018-Aug-05 07:29N 59°21' E 018°08'0 0.0
2018-Aug-05 06:59N 59°21' E 018°08'0 0.0
2018-Aug-05 06:29N 59°21' E 018°08'0 0.0
2018-Aug-05 05:59N 59°21' E 018°08'0 0.0
2018-Aug-05 05:29N 59°21' E 018°08'0 0.0
2018-Aug-05 04:59N 59°21' E 018°08'0 0.0
2018-Aug-05 04:29N 59°21' E 018°08'0 0.0
2018-Aug-05 03:59N 59°21' E 018°08'0 0.0
2018-Aug-05 03:29N 59°21' E 018°08'0 0.0
2018-Aug-05 02:59N 59°21' E 018°08'0 0.0
2018-Aug-05 02:29N 59°21' E 018°08'0 0.0
2018-Aug-05 01:59N 59°21' E 018°08'0 0.0
2018-Aug-05 01:29N 59°21' E 018°08'0 0.0
2018-Aug-05 00:59N 59°21' E 018°08'0 0.0
2018-Aug-05 00:29N 59°21' E 018°08'0 0.0
2018-Aug-04 23:59N 59°21' E 018°08'0 0.0
2018-Aug-04 23:29N 59°21' E 018°08'0 0.0
2018-Aug-04 22:59N 59°21' E 018°08'0 0.0
2018-Aug-04 22:29N 59°21' E 018°08'0 0.0
2018-Aug-04 21:59N 59°21' E 018°08'0 0.0
2018-Aug-04 21:29N 59°21' E 018°08'  
Track history (hours):
 
Tides and Currents Weather Stations Pressure Air Temp Water Temp Dewpoint Dewpoint Depression Visibility Wind Speed Wind Dir Waves Ship Positions

Costa Magica

Last reported at 2018-Aug-14 21:00 UTC. Time now 2018-Aug-14 21:09 UTC.
Position N 59°57' E 030°11'.

Type: Ship. MMSI: 247113300.

Date/timePositionNaut miles runAvg speedWind from/ knotsBaromVisibWave heightAir tempDewpointWater temp
2018-Aug-14 21:00N 59°57' E 030°11'0 0.0
2018-Aug-14 20:30N 59°57' E 030°11'0 0.0
2018-Aug-14 19:57N 59°57' E 030°11'0 0.0
2018-Aug-14 19:30N 59°57' E 030°11'0 0.0
2018-Aug-14 19:00N 59°57' E 030°11'0 0.0
2018-Aug-14 18:30N 59°57' E 030°11'0 0.0
2018-Aug-14 18:00N 59°57' E 030°11'0 0.0
2018-Aug-14 17:30N 59°57' E 030°11'0 0.0
2018-Aug-14 17:00N 59°57' E 030°11'0 0.0
2018-Aug-14 16:30N 59°57' E 030°11'0 0.0
2018-Aug-14 16:00N 59°57' E 030°11'0 0.0
2018-Aug-14 15:30N 59°57' E 030°11'0 0.0
2018-Aug-14 15:00N 59°57' E 030°11'0 0.0
2018-Aug-14 14:30N 59°57' E 030°11'0 0.0
2018-Aug-14 13:56N 59°57' E 030°11'0 0.0
2018-Aug-14 13:30N 59°57' E 030°11'0 0.0
2018-Aug-14 12:51N 59°57' E 030°11'0 0.0
2018-Aug-14 12:24N 59°57' E 030°11'0 0.0
2018-Aug-14 12:00N 59°57' E 030°11'0 0.0
2018-Aug-14 11:27N 59°57' E 030°11'0 0.0
2018-Aug-14 11:00N 59°57' E 030°11'0 0.0
2018-Aug-14 10:30N 59°57' E 030°11'0 0.0
2018-Aug-14 10:00N 59°57' E 030°11'0 0.0
2018-Aug-14 09:30N 59°57' E 030°11'0 0.0
2018-Aug-14 08:57N 59°57' E 030°11'0 0.0
2018-Aug-14 08:30N 59°57' E 030°11'0 0.0
2018-Aug-14 08:00N 59°57' E 030°11'0 0.0
2018-Aug-14 07:30N 59°57' E 030°11'0 0.0
2018-Aug-14 07:00N 59°57' E 030°11'0 0.0
2018-Aug-14 06:30N 59°57' E 030°11'0 0.0
2018-Aug-14 06:00N 59°57' E 030°11'0 0.0
2018-Aug-14 05:30N 59°57' E 030°11'0 0.0
2018-Aug-14 05:00N 59°57' E 030°11'0 0.0
2018-Aug-14 04:30N 59°57' E 030°11'0 0.0
2018-Aug-14 04:00N 59°57' E 030°11'0 0.4
2018-Aug-14 03:30N 59°57' E 030°11'4 7.3
2018-Aug-14 03:00N 59°56' E 030°04'5 9.3
2018-Aug-14 02:30N 59°56' E 029°54'5 9.5
2018-Aug-14 02:00N 59°59' E 029°46'5 9.5
2018-Aug-14 01:30N 60°00' E 029°37'511.0
2018-Aug-14 01:00N 60°01' E 029°26'510.2
2018-Aug-14 00:30N 60°02' E 029°16'815.3
2018-Aug-14 00:00N 60°02' E 029°01'815.4
2018-Aug-13 23:30N 60°02' E 028°45'815.7
2018-Aug-13 23:00N 60°03' E 028°30'815.4
2018-Aug-13 22:30N 60°07' E 028°17'815.4
2018-Aug-13 22:00N 60°09' E 028°02'815.3
2018-Aug-13 21:30N 60°10' E 027°47'815.6
2018-Aug-13 21:00N 60°07' E 027°33'815.7
2018-Aug-13 20:30N 60°03' E 027°19'915.5
2018-Aug-13 19:57N 59°58' E 027°04'715.4
2018-Aug-13 19:30N 59°59' E 026°51'815.4
2018-Aug-13 19:00N 59°59' E 026°35'815.5
2018-Aug-13 18:30N 59°57' E 026°20'915.6
2018-Aug-13 17:54N 59°54' E 026°02'615.7
2018-Aug-13 17:30N 59°52' E 025°50'816.0
2018-Aug-13 17:00N 59°51' E 025°35'816.3
2018-Aug-13 16:30N 59°49' E 025°19'816.0
2018-Aug-13 16:00N 59°47' E 025°04'816.0
2018-Aug-13 15:30N 59°43' E 024°51'815.6
2018-Aug-13 15:00N 59°36' E 024°41'612.5
2018-Aug-13 14:30N 59°31' E 024°45'4 6.9
2018-Aug-13 13:59N 59°27' E 024°46'0 0.0
2018-Aug-13 13:29N 59°27' E 024°46'0 0.0
2018-Aug-13 12:59N 59°27' E 024°46'0 0.0
2018-Aug-13 12:26N 59°27' E 024°46'0 0.0
2018-Aug-13 11:59N 59°27' E 024°46'0 0.0
2018-Aug-13 11:29N 59°27' E 024°46'0 0.0
2018-Aug-13 10:59N 59°27' E 024°46'0 0.0
2018-Aug-13 10:29N 59°27' E 024°46'0 0.0
2018-Aug-13 09:59N 59°27' E 024°46'0 0.0
2018-Aug-13 09:29N 59°27' E 024°46'0 0.0
2018-Aug-13 08:59N 59°27' E 024°46'0 0.0
2018-Aug-13 08:29N 59°27' E 024°46'0 0.0
2018-Aug-13 07:59N 59°27' E 024°46'0 0.0
2018-Aug-13 07:29N 59°27' E 024°46'0 0.0
2018-Aug-13 07:00N 59°27' E 024°46'0 0.0
2018-Aug-13 06:30N 59°27' E 024°46'0 0.0
2018-Aug-13 05:59N 59°27' E 024°46'0 0.0
2018-Aug-13 05:30N 59°27' E 024°46'0 0.0
2018-Aug-13 04:59N 59°27' E 024°46'0 0.0
2018-Aug-13 04:29N 59°27' E 024°46'0 0.1
2018-Aug-13 04:00N 59°27' E 024°46'5 9.2
2018-Aug-13 03:30N 59°30' E 024°40'713.3
2018-Aug-13 03:00N 59°30' E 024°27'714.3
2018-Aug-13 02:30N 59°30' E 024°13'714.6
2018-Aug-13 02:00N 59°29' E 023°58'713.2
2018-Aug-13 01:30N 59°29' E 023°45'612.5
2018-Aug-13 01:00N 59°29' E 023°33'612.4
2018-Aug-13 00:30N 59°28' E 023°21'612.0
2018-Aug-13 00:00N 59°28' E 023°09'712.1
2018-Aug-12 23:24N 59°27' E 022°55'512.2
2018-Aug-12 22:58N 59°25' E 022°45'2211.8
2018-Aug-12 21:07N 59°23' E 022°02'112.0
2018-Aug-12 21:00N 59°23' E 021°60'612.0
2018-Aug-12 20:30N 59°24' E 021°48'611.8
2018-Aug-12 20:00N 59°24' E 021°36'611.9
2018-Aug-12 19:30N 59°24' E 021°24'611.9
2018-Aug-12 19:00N 59°25' E 021°13'611.9
2018-Aug-12 18:30N 59°25' E 021°01'5210.0
2018-Aug-12 13:19N 59°47' E 019°28'412.1
2018-Aug-12 12:57N 59°45' E 019°19'715.2
2018-Aug-12 12:30N 59°43' E 019°07'713.9
2018-Aug-12 12:00N 59°39' E 018°55'611.1
2018-Aug-12 11:30N 59°36' E 018°46'611.5
2018-Aug-12 11:00N 59°33' E 018°37'5 9.6
2018-Aug-12 10:30N 59°30' E 018°29'510.9
2018-Aug-12 10:01N 59°26' E 018°23'5 9.1
2018-Aug-12 09:30N 59°21' E 018°26'5 9.4
2018-Aug-12 09:00N 59°22' E 018°17'5 9.4
2018-Aug-12 08:31N 59°21' E 018°09'1 1.1
2018-Aug-12 07:58N 59°21' E 018°08'0 0.0
2018-Aug-12 07:28N 59°21' E 018°08'0 0.0
2018-Aug-12 06:58N 59°21' E 018°08'0 0.0
2018-Aug-12 06:28N 59°21' E 018°08'0 0.0
2018-Aug-12 05:58N 59°21' E 018°08'0 0.0
2018-Aug-12 05:28N 59°21' E 018°08'0 0.0
2018-Aug-12 04:58N 59°21' E 018°08'0 0.0
2018-Aug-12 04:28N 59°21' E 018°08'0 0.0
2018-Aug-12 03:58N 59°21' E 018°08'0 0.0
2018-Aug-12 03:28N 59°21' E 018°08'0 0.0
2018-Aug-12 02:58N 59°21' E 018°08'0 0.0
2018-Aug-12 02:28N 59°21' E 018°08'0 0.0
2018-Aug-12 01:58N 59°21' E 018°08'0 0.0
2018-Aug-12 01:28N 59°21' E 018°08'0 0.0
2018-Aug-12 00:58N 59°21' E 018°08'0 0.0
2018-Aug-12 00:28N 59°21' E 018°08'0 0.0
2018-Aug-11 23:58N 59°21' E 018°08'0 0.0
2018-Aug-11 23:28N 59°21' E 018°08'0 0.0
2018-Aug-11 22:58N 59°21' E 018°08'0 0.0
2018-Aug-11 22:28N 59°21' E 018°08'0 0.0
2018-Aug-11 21:58N 59°21' E 018°08'0 0.0
2018-Aug-11 21:28N 59°21' E 018°08'0 0.0
2018-Aug-11 20:58N 59°21' E 018°08'0 0.0
2018-Aug-11 20:28N 59°21' E 018°08'0 0.0
2018-Aug-11 19:58N 59°21' E 018°08'0 0.0
2018-Aug-11 19:28N 59°21' E 018°08'0 0.0
2018-Aug-11 18:58N 59°21' E 018°08'0 0.0
2018-Aug-11 18:28N 59°21' E 018°08'0 0.0
2018-Aug-11 17:58N 59°21' E 018°08'0 0.0
2018-Aug-11 17:28N 59°21' E 018°08'0 0.0
2018-Aug-11 16:58N 59°21' E 018°08'0 0.0
2018-Aug-11 16:28N 59°21' E 018°08'0 0.0
2018-Aug-11 15:58N 59°21' E 018°08'0 0.0
2018-Aug-11 15:28N 59°21' E 018°08'0 0.0
2018-Aug-11 14:58N 59°21' E 018°08'0 0.0
2018-Aug-11 14:28N 59°21' E 018°08'0 0.0
2018-Aug-11 13:58N 59°21' E 018°08'0 0.0
2018-Aug-11 13:28N 59°21' E 018°08'0 0.0
2018-Aug-11 12:58N 59°21' E 018°08'0 0.0
2018-Aug-11 12:28N 59°21' E 018°08'0 0.0
2018-Aug-11 11:58N 59°21' E 018°08'0 0.0
2018-Aug-11 11:28N 59°21' E 018°08'0 0.0
2018-Aug-11 10:58N 59°21' E 018°08'0 0.0
2018-Aug-11 10:28N 59°21' E 018°08'0 0.0
2018-Aug-11 09:58N 59°21' E 018°08'0 0.0
2018-Aug-11 09:28N 59°21' E 018°08'0 0.0
2018-Aug-11 08:58N 59°21' E 018°08'0 0.0
2018-Aug-11 08:28N 59°21' E 018°08'0 0.0
2018-Aug-11 07:58N 59°21' E 018°08'0 0.0
2018-Aug-11 07:28N 59°21' E 018°08'0 0.0
2018-Aug-11 06:58N 59°21' E 018°08'0 0.0
2018-Aug-11 06:28N 59°21' E 018°08'0 0.0
2018-Aug-11 05:58N 59°21' E 018°08'0 0.0
2018-Aug-11 05:28N 59°21' E 018°08'0 0.0
2018-Aug-11 04:58N 59°21' E 018°08'0 0.0
2018-Aug-11 04:28N 59°21' E 018°08'0 0.0
2018-Aug-11 03:58N 59°21' E 018°08'0 0.0
2018-Aug-11 03:28N 59°21' E 018°08'0 0.0
2018-Aug-11 02:58N 59°21' E 018°08'0 0.0
2018-Aug-11 02:28N 59°21' E 018°08'0 0.0
2018-Aug-11 01:58N 59°21' E 018°08'0 0.0
2018-Aug-11 01:28N 59°21' E 018°08'0 0.0
2018-Aug-11 00:58N 59°21' E 018°08'0 0.0
2018-Aug-11 00:28N 59°21' E 018°08'0 0.0
2018-Aug-10 23:58N 59°21' E 018°08'0 0.0
2018-Aug-10 23:28N 59°21' E 018°08'0 0.0
2018-Aug-10 22:58N 59°21' E 018°08'0 0.0
2018-Aug-10 22:28N 59°21' E 018°08'0 0.0
2018-Aug-10 21:58N 59°21' E 018°08'0 0.0
2018-Aug-10 21:28N 59°21' E 018°08'0 0.0
2018-Aug-10 20:58N 59°21' E 018°08'0 0.0
2018-Aug-10 20:28N 59°21' E 018°08'0 0.0
2018-Aug-10 19:58N 59°21' E 018°08'0 0.0
2018-Aug-10 19:28N 59°21' E 018°08'0 0.0
2018-Aug-10 18:58N 59°21' E 018°08'0 0.0
2018-Aug-10 18:28N 59°21' E 018°08'0 0.0
2018-Aug-10 17:58N 59°21' E 018°08'0 0.0
2018-Aug-10 17:28N 59°21' E 018°08'0 0.0
2018-Aug-10 16:58N 59°21' E 018°08'0 0.0
2018-Aug-10 16:28N 59°21' E 018°08'1 1.1
2018-Aug-10 16:00N 59°21' E 018°07'0 0.5
2018-Aug-10 15:28N 59°21' E 018°07'0 0.0
2018-Aug-10 14:58N 59°21' E 018°07'0 0.0
2018-Aug-10 14:28N 59°21' E 018°07'0 0.0
2018-Aug-10 13:58N 59°21' E 018°07'0 0.0
2018-Aug-10 13:28N 59°21' E 018°07'0 0.0
2018-Aug-10 12:58N 59°21' E 018°07'0 0.0
2018-Aug-10 12:28N 59°21' E 018°07'0 0.0
2018-Aug-10 11:58N 59°21' E 018°07'0 0.0
2018-Aug-10 11:28N 59°21' E 018°07'0 0.0
2018-Aug-10 10:58N 59°21' E 018°07'0 0.0
2018-Aug-10 10:28N 59°21' E 018°07'0 0.0
2018-Aug-10 09:58N 59°21' E 018°07'0 0.0
2018-Aug-10 09:28N 59°21' E 018°07'0 0.0
2018-Aug-10 08:58N 59°21' E 018°07'0 0.0
2018-Aug-10 08:25N 59°21' E 018°07'0 0.0
2018-Aug-10 07:58N 59°21' E 018°07'0 0.0
2018-Aug-10 07:28N 59°21' E 018°07'0 0.0
2018-Aug-10 06:58N 59°21' E 018°07'1 2.0
2018-Aug-10 06:30N 59°21' E 018°08'4 8.8
2018-Aug-10 06:00N 59°22' E 018°16'5 9.6
2018-Aug-10 05:31N 59°21' E 018°26'5 9.2
2018-Aug-10 05:00N 59°26' E 018°23'510.7
2018-Aug-10 04:30N 59°30' E 018°29'5 9.7
2018-Aug-10 04:00N 59°33' E 018°37'611.7
2018-Aug-10 03:30N 59°36' E 018°47'611.5
2018-Aug-10 03:00N 59°40' E 018°56'714.1
2018-Aug-10 02:31N 59°43' E 019°07'816.5
2018-Aug-10 02:01N 59°46' E 019°23'612.2
2018-Aug-10 01:30N 59°49' E 019°34'612.2
2018-Aug-10 01:00N 59°47' E 019°46'713.2
2018-Aug-10 00:31N 59°42' E 019°55'815.2
2018-Aug-10 00:00N 59°37' E 020°06'815.3
2018-Aug-09 23:30N 59°37' E 020°21'915.3
2018-Aug-09 22:54N 59°36' E 020°39'615.6
2018-Aug-09 22:30N 59°34' E 020°50'815.6
2018-Aug-09 22:00N 59°31' E 021°05'815.6
2018-Aug-09 21:30N 59°29' E 021°20'815.4
2018-Aug-09 21:01N 59°27' E 021°34'815.6
2018-Aug-09 20:30N 59°27' E 021°50'815.7
2018-Aug-09 20:00N 59°27' E 022°05'815.6
2018-Aug-09 19:30N 59°28' E 022°20'815.7
2018-Aug-09 19:00N 59°31' E 022°35'815.3
2018-Aug-09 18:30N 59°32' E 022°50'815.4
2018-Aug-09 18:00N 59°32' E 023°05'815.0
2018-Aug-09 17:30N 59°31' E 023°20'815.2
2018-Aug-09 17:00N 59°31' E 023°35'815.2
2018-Aug-09 16:30N 59°31' E 023°50'815.4
2018-Aug-09 16:01N 59°31' E 024°05'815.1
2018-Aug-09 15:30N 59°30' E 024°20'713.6
2018-Aug-09 15:01N 59°30' E 024°33'612.0
2018-Aug-09 14:31N 59°31' E 024°45'4 7.9
2018-Aug-09 13:59N 59°27' E 024°46'0 0.0
2018-Aug-09 13:29N 59°27' E 024°46'0 0.0
2018-Aug-09 12:59N 59°27' E 024°46'0 0.0
2018-Aug-09 12:29N 59°27' E 024°46'0 0.0
2018-Aug-09 11:59N 59°27' E 024°46'0 0.0
2018-Aug-09 11:29N 59°27' E 024°46'0 0.0
2018-Aug-09 10:59N 59°27' E 024°46'0 0.0
2018-Aug-09 10:26N 59°27' E 024°46'0 0.0
2018-Aug-09 09:59N 59°27' E 024°46'0 0.0
2018-Aug-09 09:26N 59°27' E 024°46'0 0.0
2018-Aug-09 08:59N 59°27' E 024°46'0 0.0
2018-Aug-09 08:29N 59°27' E 024°46'0 0.0
2018-Aug-09 07:59N 59°27' E 024°46'0 0.0
2018-Aug-09 07:29N 59°27' E 024°46'0 0.0
2018-Aug-09 06:59N 59°27' E 024°46'0 0.0
2018-Aug-09 06:29N 59°27' E 024°46'0 0.0
2018-Aug-09 05:59N 59°27' E 024°46'0 0.0
2018-Aug-09 05:30N 59°27' E 024°46'3 5.5
2018-Aug-09 05:00N 59°30' E 024°45'714.2
2018-Aug-09 04:30N 59°36' E 024°40'611.2
2018-Aug-09 04:00N 59°41' E 024°45'612.1
2018-Aug-09 03:30N 59°46' E 024°53'612.1
2018-Aug-09 03:00N 59°51' E 025°00'612.7
2018-Aug-09 02:31N 59°52' E 025°13'612.6
2018-Aug-09 02:00N 59°53' E 025°25'713.7
2018-Aug-09 01:30N 59°54' E 025°39'815.6
2018-Aug-09 01:00N 59°56' E 025°54'815.7
2018-Aug-09 00:30N 59°58' E 026°09'815.3
2018-Aug-09 00:00N 60°00' E 026°24'815.1
2018-Aug-08 23:30N 60°01' E 026°39'816.1
2018-Aug-08 23:01N 60°00' E 026°54'714.5
2018-Aug-08 22:30N 60°01' E 027°09'815.7
2018-Aug-08 22:00N 60°05' E 027°22'815.7
2018-Aug-08 21:30N 60°09' E 027°36'715.0
2018-Aug-08 21:00N 60°12' E 027°50'815.8
2018-Aug-08 20:30N 60°10' E 028°05'815.1
2018-Aug-08 20:00N 60°07' E 028°19'714.8
2018-Aug-08 19:30N 60°03' E 028°32'815.5
2018-Aug-08 19:00N 60°03' E 028°48'815.7
2018-Aug-08 18:30N 60°02' E 029°03'1019.2
2018-Aug-08 18:00N 60°02' E 029°23'4 8.5
2018-Aug-08 17:28N 60°01' E 029°32'612.7
2018-Aug-08 16:59N 59°59' E 029°43'610.1
2018-Aug-08 16:25N 59°57' E 029°53'410.1
2018-Aug-08 16:00N 59°56' E 030°02'5 8.7
2018-Aug-08 15:25N 59°57' E 030°11'0 0.4
2018-Aug-08 15:00N 59°57' E 030°12'0 0.0
2018-Aug-08 14:24N 59°57' E 030°12'0 0.0
2018-Aug-08 14:00N 59°57' E 030°12'0 0.0
2018-Aug-08 13:26N 59°57' E 030°12'0 0.0
2018-Aug-08 13:00N 59°57' E 030°12'0 0.0
2018-Aug-08 12:27N 59°57' E 030°12'0 0.0
2018-Aug-08 11:43N 59°57' E 030°12'0 0.0
2018-Aug-08 11:28N 59°57' E 030°12'0 0.0
2018-Aug-08 10:54N 59°57' E 030°12'0 0.0
2018-Aug-08 10:18N 59°57' E 030°12'0 0.0
2018-Aug-08 09:44N 59°57' E 030°12'0 0.0
2018-Aug-08 09:22N 59°57' E 030°12'0 0.0
2018-Aug-08 08:56N 59°57' E 030°12'0 0.0
2018-Aug-08 08:27N 59°57' E 030°12'0 0.0
2018-Aug-08 07:53N 59°57' E 030°12'0 0.0
2018-Aug-08 07:27N 59°57' E 030°12'0 0.0
2018-Aug-08 06:59N 59°57' E 030°12'0 0.0
2018-Aug-08 06:27N 59°57' E 030°12'0 0.0
2018-Aug-08 05:54N 59°57' E 030°12'0 0.0
2018-Aug-08 05:27N 59°57' E 030°12'0 0.0
2018-Aug-08 04:53N 59°57' E 030°12'0 0.0
2018-Aug-08 04:27N 59°57' E 030°12'0 0.0
2018-Aug-08 03:54N 59°57' E 030°12'0 0.0
2018-Aug-08 03:21N 59°57' E 030°11'0 0.0
2018-Aug-08 02:55N 59°57' E 030°12'0 0.0
2018-Aug-08 02:30N 59°57' E 030°12'0 0.0
2018-Aug-08 01:57N 59°57' E 030°12'0 0.0
2018-Aug-08 01:28N 59°57' E 030°12'0 0.0
2018-Aug-08 00:58N 59°57' E 030°12'0 0.0
2018-Aug-08 00:24N 59°57' E 030°11'0 0.0
2018-Aug-07 23:59N 59°57' E 030°11'0 0.0
2018-Aug-07 23:27N 59°57' E 030°11'0 0.0
2018-Aug-07 22:52N 59°57' E 030°12'0 0.0
2018-Aug-07 22:29N 59°57' E 030°12'0 0.0
2018-Aug-07 21:55N 59°57' E 030°12'0 0.0
2018-Aug-07 21:29N 59°57' E 030°12'0 0.0
2018-Aug-07 20:48N 59°57' E 030°12'0 0.0
2018-Aug-07 20:29N 59°57' E 030°12'0 0.0
2018-Aug-07 19:48N 59°57' E 030°12'0 0.0
2018-Aug-07 19:29N 59°57' E 030°12'0 0.0
2018-Aug-07 18:57N 59°57' E 030°12'0 0.0
2018-Aug-07 18:30N 59°57' E 030°12'0 0.0
2018-Aug-07 17:59N 59°57' E 030°12'0 0.0
2018-Aug-07 17:30N 59°57' E 030°12'0 0.0
2018-Aug-07 17:00N 59°57' E 030°12'0 0.0
2018-Aug-07 16:30N 59°57' E 030°12'0 0.0
2018-Aug-07 15:56N 59°57' E 030°12'0 0.0
2018-Aug-07 15:30N 59°57' E 030°12'0 0.0
2018-Aug-07 14:54N 59°57' E 030°12'0 0.0
2018-Aug-07 14:22N 59°57' E 030°12'0 0.0
2018-Aug-07 13:57N 59°57' E 030°12'0 0.0
2018-Aug-07 13:30N 59°57' E 030°12'0 0.0
2018-Aug-07 12:57N 59°57' E 030°12'0 0.0
2018-Aug-07 12:30N 59°57' E 030°12'0 0.0
2018-Aug-07 11:57N 59°57' E 030°12'0 0.0
2018-Aug-07 11:30N 59°57' E 030°12'0 0.0
2018-Aug-07 10:57N 59°57' E 030°12'0 0.0
2018-Aug-07 09:44N 59°57' E 030°12'0 0.0
2018-Aug-07 09:27N 59°57' E 030°12'0 0.0
2018-Aug-07 08:54N 59°57' E 030°12'0 0.0
2018-Aug-07 08:27N 59°57' E 030°12'0 0.0
2018-Aug-07 07:54N 59°57' E 030°12'0 0.0
2018-Aug-07 07:21N 59°57' E 030°12'0 0.0
2018-Aug-07 06:54N 59°57' E 030°12'0 0.0
2018-Aug-07 06:28N 59°57' E 030°12'0 0.0
2018-Aug-07 05:54N 59°57' E 030°12'0 0.0
2018-Aug-07 05:30N 59°57' E 030°12'0 0.0
2018-Aug-07 04:57N 59°57' E 030°12'0 0.0
2018-Aug-07 04:30N 59°57' E 030°12'0 0.0
2018-Aug-07 03:57N 59°57' E 030°12'24 7.2
2018-Aug-07 00:35N 60°02' E 029°24'114.7
2018-Aug-07 00:30N 60°02' E 029°22'917.4
2018-Aug-07 00:01N 60°02' E 029°04'816.9
2018-Aug-06 23:30N 60°02' E 028°47'816.0
2018-Aug-06 23:00N 60°03' E 028°31'815.9
2018-Aug-06 22:30N 60°06' E 028°17'815.8
2018-Aug-06 22:01N 60°09' E 028°03'816.0
2018-Aug-06 21:30N 60°11' E 027°46'815.5
2018-Aug-06 21:00N 60°07' E 027°33'815.3
2018-Aug-06 20:30N 60°03' E 027°20'815.5
2018-Aug-06 20:00N 59°59' E 027°07'714.8
2018-Aug-06 19:30N 59°59' E 026°52'815.5
2018-Aug-06 19:00N 59°59' E 026°37'815.6
2018-Aug-06 18:30N 59°57' E 026°21'1215.5
2018-Aug-06 17:45N 59°54' E 025°59'415.8
2018-Aug-06 17:28N 59°53' E 025°51'816.1
2018-Aug-06 17:00N 59°52' E 025°36'816.5
2018-Aug-06 16:30N 59°55' E 025°21'816.7
2018-Aug-06 16:00N 59°58' E 025°05'713.7
2018-Aug-06 15:30N 60°02' E 024°54'713.1
2018-Aug-06 15:01N 60°09' E 024°55'0 0.5
2018-Aug-06 14:29N 60°09' E 024°55'0 0.0
2018-Aug-06 13:59N 60°09' E 024°55'0 0.0
2018-Aug-06 13:29N 60°09' E 024°55'0 0.0
2018-Aug-06 12:59N 60°09' E 024°55'0 0.0
2018-Aug-06 12:29N 60°09' E 024°55'0 0.0
2018-Aug-06 11:59N 60°09' E 024°55'0 0.0
2018-Aug-06 11:29N 60°09' E 024°55'0 0.0
2018-Aug-06 10:59N 60°09' E 024°55'0 0.0
2018-Aug-06 10:29N 60°09' E 024°55'0 0.0
2018-Aug-06 09:59N 60°09' E 024°55'0 0.0
2018-Aug-06 09:29N 60°09' E 024°55'0 0.0
2018-Aug-06 08:59N 60°09' E 024°55'0 0.0
2018-Aug-06 08:29N 60°09' E 024°55'0 0.0
2018-Aug-06 07:59N 60°09' E 024°55'0 0.0
2018-Aug-06 07:29N 60°09' E 024°55'0 0.0
2018-Aug-06 06:59N 60°09' E 024°55'0 0.0
2018-Aug-06 06:29N 60°09' E 024°55'0 0.0
2018-Aug-06 05:59N 60°09' E 024°55'0 0.0
2018-Aug-06 05:29N 60°09' E 024°55'0 0.0
2018-Aug-06 04:59N 60°09' E 024°55'0 0.0
2018-Aug-06 04:30N 60°09' E 024°55'0 0.9
2018-Aug-06 04:00N 60°09' E 024°55'5 9.2
2018-Aug-06 03:30N 60°04' E 024°53'612.5
2018-Aug-06 03:00N 59°58' E 024°56'510.8
2018-Aug-06 02:30N 59°53' E 024°54'611.9
2018-Aug-06 02:00N 59°48' E 024°49'612.1
2018-Aug-06 01:30N 59°45' E 024°37'612.4
2018-Aug-06 01:00N 59°44' E 024°26'612.3
2018-Aug-06 00:30N 59°42' E 024°14'612.1
2018-Aug-06 00:00N 59°40' E 024°02'612.4
2018-Aug-05 23:30N 59°38' E 023°51'612.6
2018-Aug-05 23:00N 59°36' E 023°39'612.0
2018-Aug-05 22:30N 59°34' E 023°28'612.0
2018-Aug-05 22:00N 59°32' E 023°16'612.2
2018-Aug-05 21:30N 59°30' E 023°05'612.6
2018-Aug-05 21:00N 59°28' E 022°53'2714.3
2018-Aug-05 19:07N 59°23' E 022°01'215.6
2018-Aug-05 19:00N 59°23' E 021°58'815.9
2018-Aug-05 18:31N 59°24' E 021°42'816.0
2018-Aug-05 18:00N 59°24' E 021°26'816.1
2018-Aug-05 17:30N 59°25' E 021°11'816.0
2018-Aug-05 17:00N 59°26' E 020°55'4113.8
2018-Aug-05 14:03N 59°45' E 019°44'914.8
2018-Aug-05 13:26N 59°47' E 019°27'612.8
2018-Aug-05 13:00N 59°45' E 019°16'816.2
2018-Aug-05 12:30N 59°42' E 019°01'510.9
2018-Aug-05 12:00N 59°38' E 018°53'612.3
2018-Aug-05 11:30N 59°35' E 018°43'510.6
2018-Aug-05 11:00N 59°32' E 018°34'5 9.6
2018-Aug-05 10:31N 59°29' E 018°27'4 8.5
2018-Aug-05 10:01N 59°25' E 018°25'3 6.2
2018-Aug-05 09:31N 59°22' E 018°25'4 8.9
2018-Aug-05 09:01N 59°22' E 018°16'4 8.3
2018-Aug-05 08:31N 59°21' E 018°08'0 0.6
2018-Aug-05 07:59N 59°21' E 018°08'0 0.0
2018-Aug-05 07:29N 59°21' E 018°08'0 0.0
2018-Aug-05 06:59N 59°21' E 018°08'0 0.0
2018-Aug-05 06:29N 59°21' E 018°08'0 0.0
2018-Aug-05 05:59N 59°21' E 018°08'0 0.0
2018-Aug-05 05:29N 59°21' E 018°08'0 0.0
2018-Aug-05 04:59N 59°21' E 018°08'0 0.0
2018-Aug-05 04:29N 59°21' E 018°08'0 0.0
2018-Aug-05 03:59N 59°21' E 018°08'0 0.0
2018-Aug-05 03:29N 59°21' E 018°08'0 0.0
2018-Aug-05 02:59N 59°21' E 018°08'0 0.0
2018-Aug-05 02:29N 59°21' E 018°08'0 0.0
2018-Aug-05 01:59N 59°21' E 018°08'0 0.0
2018-Aug-05 01:29N 59°21' E 018°08'0 0.0
2018-Aug-05 00:59N 59°21' E 018°08'0 0.0
2018-Aug-05 00:29N 59°21' E 018°08'0 0.0
2018-Aug-04 23:59N 59°21' E 018°08'0 0.0
2018-Aug-04 23:29N 59°21' E 018°08'0 0.0
2018-Aug-04 22:59N 59°21' E 018°08'0 0.0
2018-Aug-04 22:29N 59°21' E 018°08'0 0.0
2018-Aug-04 21:59N 59°21' E 018°08'0 0.0
2018-Aug-04 21:29N 59°21' E 018°08'  

Dump ship's entire track history